createdAt,value
2019-04-30T00:00:25.839Z,7.60
2019-04-30T00:02:57.645Z,6.67
2019-04-30T00:05:27.501Z,8.10
2019-04-30T00:07:58.459Z,7.35
2019-04-30T00:10:36.023Z,7.05
2019-04-30T00:13:00.606Z,6.83
2019-04-30T00:15:30.720Z,7.42
2019-04-30T00:18:01.834Z,7.62
2019-04-30T00:20:37.150Z,6.80
2019-04-30T00:23:05.180Z,7.35
2019-04-30T00:25:35.676Z,7.45
2019-04-30T00:28:08.692Z,7.22
2019-04-30T00:30:39.373Z,7.85
2019-04-30T00:33:09.246Z,7.58
2019-04-30T00:35:39.392Z,7.83
2019-04-30T00:38:09.361Z,7.85
2019-04-30T00:41:05.815Z,7.60
2019-04-30T00:43:37.587Z,8.05
2019-04-30T00:46:08.370Z,7.67
2019-04-30T00:48:38.332Z,8.10
2019-04-30T00:51:17.706Z,8.93
2019-04-30T00:53:43.856Z,7.45
2019-04-30T00:56:19.966Z,8.20
2019-04-30T00:58:49.811Z,8.63
2019-04-30T01:01:26.525Z,9.48
2019-04-30T01:04:06.934Z,8.53
2019-04-30T01:06:36.826Z,8.53
2019-04-30T01:09:08.585Z,8.48
2019-04-30T01:11:39.823Z,9.10
2019-04-30T01:14:11.683Z,9.25
2019-04-30T01:16:43.440Z,8.70
2019-04-30T01:19:28.900Z,8.68
2019-04-30T01:21:49.186Z,10.00
2019-04-30T01:24:23.493Z,9.13
2019-04-30T01:26:52.859Z,8.88
2019-04-30T01:29:24.029Z,8.98
2019-04-30T01:31:54.012Z,7.90
2019-04-30T01:34:24.007Z,8.73
2019-04-30T01:36:55.201Z,9.20
2019-04-30T01:39:28.432Z,8.93
2019-04-30T01:41:58.707Z,9.38
2019-04-30T01:44:29.569Z,9.70
2019-04-30T01:47:00.998Z,10.08
2019-04-30T01:49:41.724Z,9.08
2019-04-30T01:52:02.670Z,10.00
2019-04-30T01:54:34.116Z,9.95
2019-04-30T01:57:23.228Z,11.00
2019-04-30T02:00:13.001Z,11.28
2019-04-30T02:02:46.417Z,10.70
2019-04-30T02:05:18.858Z,10.93
2019-04-30T02:07:49.051Z,10.33
2019-04-30T02:10:19.025Z,11.63
2019-04-30T02:12:49.446Z,12.68
2019-04-30T02:15:20.841Z,12.20
2019-04-30T02:17:50.921Z,10.50
2019-04-30T02:20:21.836Z,11.95
2019-04-30T02:22:53.453Z,11.43
2019-04-30T02:25:23.360Z,13.00
2019-04-30T02:27:53.449Z,11.73
2019-04-30T02:30:24.466Z,12.45
2019-04-30T02:32:54.389Z,12.15
2019-04-30T02:35:30.138Z,12.15
2019-04-30T02:38:10.887Z,12.73
2019-04-30T02:40:42.828Z,12.35
2019-04-30T02:43:14.136Z,12.35
2019-04-30T02:45:46.499Z,12.98
2019-04-30T02:48:19.421Z,13.65
2019-04-30T02:50:52.473Z,13.80
2019-04-30T02:53:50.964Z,13.98
2019-04-30T02:56:26.541Z,14.07
2019-04-30T02:58:55.297Z,14.95
2019-04-30T03:01:25.278Z,14.13
2019-04-30T03:03:55.233Z,13.48
2019-04-30T03:06:25.253Z,13.68
2019-04-30T03:08:56.968Z,12.60
2019-04-30T03:11:29.855Z,12.68
2019-04-30T03:13:59.444Z,13.43
2019-04-30T03:16:53.177Z,14.45
2019-04-30T03:19:29.719Z,13.75
2019-04-30T03:22:07.062Z,13.93
2019-04-30T03:24:42.259Z,13.43
2019-04-30T03:27:10.177Z,14.50
2019-04-30T03:29:40.691Z,13.75
2019-04-30T03:32:13.323Z,13.20
2019-04-30T03:34:42.840Z,13.90
2019-04-30T03:37:13.551Z,12.20
2019-04-30T03:39:43.637Z,13.72
2019-04-30T03:42:13.618Z,12.50
2019-04-30T03:44:44.146Z,13.22
2019-04-30T03:47:14.077Z,13.60
2019-04-30T03:49:44.058Z,13.93
2019-04-30T03:52:14.071Z,13.38
2019-04-30T03:54:44.077Z,13.35
2019-04-30T03:57:16.129Z,13.15
2019-04-30T03:59:49.961Z,12.98
2019-04-30T04:02:25.138Z,12.25
2019-04-30T04:05:01.151Z,12.35
2019-04-30T04:07:44.509Z,12.13
2019-04-30T04:10:19.607Z,8.75
2019-04-30T04:12:49.959Z,12.90
2019-04-30T04:15:20.120Z,12.90
2019-04-30T04:17:50.548Z,12.47
2019-04-30T04:20:20.630Z,12.33
2019-04-30T04:22:50.642Z,12.00
2019-04-30T04:25:23.006Z,12.33
2019-04-30T04:27:52.955Z,13.58
2019-04-30T04:30:22.868Z,11.60
2019-04-30T04:32:52.962Z,11.90
2019-04-30T04:35:23.016Z,12.53
2019-04-30T04:37:53.030Z,12.68
2019-04-30T04:40:23.074Z,13.00
2019-04-30T04:42:53.090Z,12.40
2019-04-30T04:45:23.109Z,12.23
2019-04-30T04:47:53.102Z,12.18
2019-04-30T04:50:23.212Z,12.63
2019-04-30T04:52:53.299Z,12.95
2019-04-30T04:55:23.331Z,13.03
2019-04-30T04:57:54.105Z,12.03
2019-04-30T05:00:24.190Z,11.03
2019-04-30T05:02:55.811Z,12.07
2019-04-30T05:05:25.829Z,12.75
2019-04-30T05:07:55.693Z,12.45
2019-04-30T05:10:25.699Z,12.98
2019-04-30T05:12:55.708Z,12.85
2019-04-30T05:15:25.697Z,13.22
2019-04-30T05:17:55.716Z,12.65
2019-04-30T05:20:25.629Z,11.53
2019-04-30T05:22:55.641Z,9.83
2019-04-30T05:25:25.549Z,9.58
2019-04-30T05:27:55.570Z,9.63
2019-04-30T05:30:25.578Z,10.25
2019-04-30T05:32:55.525Z,9.58
2019-04-30T05:35:25.569Z,8.93
2019-04-30T05:37:55.653Z,9.05
2019-04-30T05:40:25.793Z,8.83
2019-04-30T05:42:55.814Z,9.15
2019-04-30T05:45:29.064Z,8.83
2019-04-30T05:47:59.277Z,8.75
2019-04-30T05:50:29.687Z,8.60
2019-04-30T05:53:00.910Z,8.08
2019-04-30T05:55:30.946Z,8.65
2019-04-30T05:58:01.556Z,9.13
2019-04-30T06:00:31.707Z,9.65
2019-04-30T06:03:01.795Z,9.13
2019-04-30T06:05:31.866Z,8.63
2019-04-30T06:08:01.873Z,9.23
2019-04-30T06:10:33.521Z,9.25
2019-04-30T06:13:11.806Z,9.20
2019-04-30T06:15:46.187Z,8.98
2019-04-30T06:18:16.217Z,8.23
2019-04-30T06:20:46.185Z,9.40
2019-04-30T06:23:16.198Z,9.55
2019-04-30T06:25:57.589Z,7.78
2019-04-30T06:28:19.600Z,7.65
2019-04-30T06:30:49.717Z,7.83
2019-04-30T06:33:20.408Z,8.30
2019-04-30T06:35:51.897Z,7.83
2019-04-30T06:38:29.053Z,7.00
2019-04-30T06:40:59.413Z,6.78
2019-04-30T06:43:31.071Z,6.60
2019-04-30T06:46:01.114Z,7.97
2019-04-30T06:48:33.885Z,7.95
2019-04-30T06:51:04.073Z,7.85
2019-04-30T06:53:34.058Z,7.00
2019-04-30T06:56:04.089Z,7.17
2019-04-30T06:58:34.074Z,7.42
2019-04-30T07:01:04.761Z,7.55
2019-04-30T07:03:35.342Z,7.05
2019-04-30T07:06:05.409Z,7.03
2019-04-30T07:08:54.655Z,7.03
2019-04-30T07:11:23.709Z,6.60
2019-04-30T07:13:56.177Z,6.10
2019-04-30T07:16:30.561Z,6.90
2019-04-30T07:19:05.718Z,7.05
2019-04-30T07:21:49.593Z,5.90
2019-04-30T07:24:20.969Z,5.42
2019-04-30T07:26:54.689Z,6.45
2019-04-30T07:29:29.578Z,6.40
2019-04-30T07:32:11.901Z,7.30
2019-04-30T07:34:53.312Z,5.97
2019-04-30T07:37:42.583Z,6.60
2019-04-30T07:52:22.954Z,6.28
2019-04-30T08:01:10.399Z,1.70
2019-04-30T08:03:56.267Z,1.35
2019-04-30T08:09:50.518Z,1.25
2019-04-30T08:12:54.565Z,1.52
2019-04-30T08:15:33.075Z,1.22
2019-04-30T08:18:12.068Z,2.20
2019-04-30T08:23:59.358Z,1.00
2019-04-30T08:29:34.352Z,0.80
2019-04-30T08:32:04.369Z,0.60
2019-04-30T08:34:42.211Z,1.12
2019-04-30T08:37:17.600Z,1.10
2019-04-30T08:40:00.296Z,0.85
2019-04-30T08:42:40.977Z,0.72
2019-04-30T08:45:13.418Z,0.80
2019-04-30T08:47:45.037Z,1.00
2019-04-30T08:50:20.085Z,0.80
2019-04-30T08:52:51.749Z,1.25
2019-04-30T08:55:23.469Z,1.10
2019-04-30T08:57:53.488Z,1.52
2019-04-30T09:00:25.005Z,1.72
2019-04-30T09:02:55.686Z,1.15
2019-04-30T09:05:33.173Z,1.82
2019-04-30T09:08:06.362Z,3.27
2019-04-30T09:10:39.292Z,2.33
2019-04-30T09:16:11.229Z,2.60
2019-04-30T09:18:49.442Z,2.50
2019-04-30T09:21:22.557Z,3.00
2019-04-30T09:23:59.636Z,3.45
2019-04-30T09:26:41.724Z,3.65
2019-04-30T09:29:20.163Z,3.77
2019-04-30T09:31:59.258Z,2.90
2019-04-30T09:34:29.501Z,2.75
2019-04-30T09:37:00.369Z,3.15
2019-04-30T09:39:30.310Z,2.50
2019-04-30T09:42:03.900Z,2.50
2019-04-30T09:44:33.879Z,2.67
2019-04-30T09:47:03.859Z,2.72
2019-04-30T09:49:34.947Z,3.30
2019-04-30T09:52:06.130Z,3.17
2019-04-30T09:54:36.359Z,3.10
2019-04-30T09:57:09.126Z,3.33
2019-04-30T09:59:39.664Z,3.17
2019-04-30T10:02:10.645Z,3.00
2019-04-30T10:04:41.260Z,3.40
2019-04-30T10:07:13.097Z,3.00
2019-04-30T10:09:43.139Z,3.17
2019-04-30T10:12:15.062Z,2.87
2019-04-30T10:14:49.498Z,2.65
2019-04-30T10:17:24.065Z,2.80
2019-04-30T10:19:55.579Z,2.58
2019-04-30T10:22:25.612Z,2.60
2019-04-30T10:24:55.581Z,2.72
2019-04-30T10:27:29.143Z,2.98
2019-04-30T10:29:59.408Z,3.35
2019-04-30T10:32:30.075Z,3.40
2019-04-30T10:35:00.142Z,2.77
2019-04-30T10:37:30.229Z,2.95
2019-04-30T10:40:00.205Z,1.10
2019-04-30T10:42:34.722Z,0.50
2019-04-30T10:45:07.141Z,0.40
2019-04-30T10:47:38.836Z,0.28
2019-04-30T10:50:10.132Z,0.50
2019-04-30T10:52:40.146Z,0.30
2019-04-30T10:55:10.918Z,0.50
2019-04-30T10:57:40.930Z,0.50
2019-04-30T11:00:14.715Z,0.20
2019-04-30T11:02:44.803Z,0.70
2019-04-30T11:05:15.090Z,0.70
2019-04-30T11:07:45.055Z,0.85
2019-04-30T11:10:18.882Z,0.82
2019-04-30T11:12:49.084Z,0.80
2019-04-30T11:15:20.783Z,0.70
2019-04-30T11:17:50.992Z,0.75
2019-04-30T11:20:22.265Z,0.80
2019-04-30T11:22:54.752Z,2.05
2019-04-30T11:25:24.919Z,1.70
2019-04-30T11:27:55.727Z,1.77
2019-04-30T11:30:26.282Z,2.20
2019-04-30T11:32:56.536Z,2.10
2019-04-30T11:35:26.879Z,1.42
2019-04-30T11:37:56.975Z,1.45
2019-04-30T11:40:34.496Z,2.10
2019-04-30T11:43:01.589Z,2.95
2019-04-30T11:45:53.697Z,2.60
2019-04-30T11:48:25.276Z,3.58
2019-04-30T11:50:55.317Z,3.58
2019-04-30T11:53:28.831Z,3.95
2019-04-30T11:55:59.100Z,4.25
2019-04-30T11:58:30.525Z,4.97
2019-04-30T12:01:01.611Z,5.67
2019-04-30T12:03:34.175Z,6.28
2019-04-30T12:06:05.758Z,4.80
2019-04-30T12:08:39.421Z,6.67
2019-04-30T12:11:11.056Z,5.67
2019-04-30T12:13:43.453Z,5.45
2019-04-30T12:16:13.587Z,5.53
2019-04-30T12:18:44.269Z,5.53
2019-04-30T12:21:18.692Z,6.42
2019-04-30T12:23:56.322Z,5.70
2019-04-30T12:26:26.321Z,6.42
2019-04-30T12:29:00.054Z,5.87
2019-04-30T12:31:30.086Z,6.50
2019-04-30T12:34:03.243Z,5.72
2019-04-30T12:36:33.187Z,5.08
2019-04-30T12:39:03.155Z,5.22
2019-04-30T12:41:36.378Z,5.22
2019-04-30T12:44:06.593Z,5.10
2019-04-30T12:46:38.647Z,5.62
2019-04-30T12:49:10.415Z,7.15
2019-04-30T12:51:50.563Z,8.13
2019-04-30T12:54:34.637Z,6.85
2019-04-30T12:57:10.903Z,7.25
2019-04-30T12:59:41.222Z,8.30
2019-04-30T13:02:12.802Z,7.85
2019-04-30T13:04:49.225Z,7.90
2019-04-30T13:07:23.972Z,8.25
2019-04-30T13:10:00.693Z,8.10
2019-04-30T13:12:33.069Z,7.83
2019-04-30T13:15:07.390Z,7.83
2019-04-30T13:17:37.241Z,9.13
2019-04-30T13:20:18.154Z,8.23
2019-04-30T13:22:39.657Z,7.67
2019-04-30T13:25:11.142Z,9.50
2019-04-30T13:27:54.152Z,8.90
2019-04-30T13:30:30.099Z,9.60
2019-04-30T13:33:16.428Z,8.33
2019-04-30T13:35:46.406Z,8.40
2019-04-30T13:38:21.118Z,7.58
2019-04-30T13:40:58.903Z,8.00
2019-04-30T13:43:39.931Z,11.97
2019-04-30T13:46:08.631Z,18.67
2019-04-30T13:48:39.754Z,8.30
2019-04-30T13:51:09.853Z,7.62
2019-04-30T13:53:39.906Z,9.48
2019-04-30T13:56:10.236Z,8.18
2019-04-30T13:58:40.402Z,7.75
2019-04-30T14:01:11.457Z,6.80
2019-04-30T14:03:45.977Z,9.05
2019-04-30T14:06:19.004Z,10.18
2019-04-30T14:08:51.750Z,8.70
2019-04-30T14:11:21.773Z,10.07
2019-04-30T14:13:51.853Z,10.03
2019-04-30T14:16:24.732Z,10.40
2019-04-30T14:18:56.393Z,10.43
2019-04-30T14:21:33.139Z,10.15
2019-04-30T14:23:59.754Z,9.98
2019-04-30T14:26:29.934Z,10.68
2019-04-30T14:28:59.856Z,11.90
2019-04-30T14:31:34.397Z,11.93
2019-04-30T14:34:06.586Z,12.58
2019-04-30T14:36:39.209Z,12.90
2019-04-30T14:39:14.492Z,13.95
2019-04-30T14:41:43.030Z,14.47
2019-04-30T14:44:31.189Z,15.13
2019-04-30T14:47:03.799Z,13.20
2019-04-30T14:49:39.469Z,12.70
2019-04-30T14:52:10.214Z,12.73
2019-04-30T14:54:44.789Z,12.37
2019-04-30T14:57:20.657Z,11.57
2019-04-30T15:00:01.987Z,12.45
2019-04-30T15:02:34.310Z,11.60
2019-04-30T15:05:09.471Z,11.25
2019-04-30T15:07:39.739Z,11.38
2019-04-30T15:10:15.597Z,10.68
2019-04-30T15:12:46.607Z,10.18
2019-04-30T15:15:19.199Z,10.40
2019-04-30T15:17:49.436Z,10.30
2019-04-30T15:20:20.857Z,9.83
2019-04-30T15:22:52.465Z,10.75
2019-04-30T15:25:34.324Z,10.75
2019-04-30T15:28:03.197Z,9.50
2019-04-30T15:30:41.853Z,9.78
2019-04-30T15:33:13.485Z,9.73
2019-04-30T15:35:45.679Z,9.35
2019-04-30T15:38:23.428Z,10.35
2019-04-30T15:40:59.029Z,10.53
2019-04-30T15:43:29.145Z,10.13
2019-04-30T15:45:59.089Z,10.25
2019-04-30T15:48:29.065Z,9.35
2019-04-30T15:50:59.127Z,10.40
2019-04-30T15:53:29.077Z,10.43
2019-04-30T15:56:00.657Z,9.18
2019-04-30T15:58:32.389Z,9.30
2019-04-30T16:01:02.779Z,8.88
2019-04-30T16:03:37.636Z,8.83
2019-04-30T16:06:08.334Z,8.70
2019-04-30T16:08:55.974Z,9.30
2019-04-30T16:11:43.870Z,8.13
2019-04-30T16:14:30.485Z,9.48
2019-04-30T16:17:02.090Z,8.73
2019-04-30T16:19:33.061Z,8.10
2019-04-30T16:22:03.009Z,8.73
2019-04-30T16:24:33.130Z,8.03
2019-04-30T16:27:03.137Z,8.13
2019-04-30T16:29:33.175Z,7.22
2019-04-30T16:32:03.185Z,7.92
2019-04-30T16:34:33.299Z,7.80
2019-04-30T16:37:03.318Z,8.98
2019-04-30T16:39:33.301Z,7.67
2019-04-30T16:42:03.379Z,7.35
2019-04-30T16:44:33.346Z,8.05
2019-04-30T16:47:13.073Z,8.50
2019-04-30T16:49:35.101Z,7.50
2019-04-30T16:52:05.111Z,9.43
2019-04-30T16:54:35.120Z,9.08
2019-04-30T16:57:06.919Z,9.60
2019-04-30T16:59:39.022Z,8.55
2019-04-30T17:02:09.443Z,8.88
2019-04-30T17:04:57.157Z,8.18
2019-04-30T17:07:38.756Z,8.28
2019-04-30T17:10:10.961Z,8.05
2019-04-30T17:12:45.397Z,7.70
2019-04-30T17:15:25.759Z,8.88
2019-04-30T17:17:55.802Z,9.53
2019-04-30T17:20:25.817Z,10.45
2019-04-30T17:22:55.916Z,10.72
2019-04-30T17:25:25.897Z,11.25
2019-04-30T17:27:55.953Z,13.45
2019-04-30T17:30:25.940Z,11.90
2019-04-30T17:32:55.951Z,12.95
2019-04-30T17:35:26.061Z,11.43
2019-04-30T17:37:56.077Z,11.95
2019-04-30T17:40:26.076Z,11.93
2019-04-30T17:42:56.090Z,12.20
2019-04-30T17:45:26.085Z,12.78
2019-04-30T17:47:56.101Z,11.33
2019-04-30T17:50:26.135Z,11.45
2019-04-30T17:52:56.195Z,9.98
2019-04-30T17:55:26.210Z,10.50
2019-04-30T17:57:56.301Z,10.58
2019-04-30T18:00:29.320Z,10.23
2019-04-30T18:02:59.289Z,9.73
2019-04-30T18:05:29.317Z,11.57
2019-04-30T18:07:59.465Z,12.15
2019-04-30T18:10:29.517Z,11.38
2019-04-30T18:12:59.469Z,11.88
2019-04-30T18:15:30.950Z,12.35
2019-04-30T18:18:17.737Z,12.10
2019-04-30T18:20:56.976Z,12.15
2019-04-30T18:23:37.658Z,12.10
2019-04-30T18:26:16.069Z,11.65
2019-04-30T18:28:46.026Z,12.23
2019-04-30T18:31:16.022Z,11.80
2019-04-30T18:33:45.972Z,10.82
2019-04-30T18:36:15.985Z,11.40
2019-04-30T18:38:45.969Z,10.95
2019-04-30T18:41:19.985Z,9.65
2019-04-30T18:43:50.103Z,10.88
2019-04-30T18:46:20.156Z,9.90
2019-04-30T18:48:52.546Z,9.28
2019-04-30T18:51:35.861Z,9.55
2019-04-30T18:53:55.500Z,8.90
2019-04-30T18:56:25.510Z,7.75
2019-04-30T18:58:55.570Z,6.67
2019-04-30T19:01:25.833Z,6.58
2019-04-30T19:03:55.892Z,6.15
2019-04-30T19:06:26.777Z,6.78
2019-04-30T19:08:58.714Z,6.40
2019-04-30T19:11:43.749Z,6.40
2019-04-30T19:14:33.597Z,6.10
2019-04-30T19:17:11.057Z,6.00
2019-04-30T19:19:48.770Z,6.03
2019-04-30T19:22:18.757Z,5.53
2019-04-30T19:24:58.240Z,5.40
2019-04-30T19:27:20.440Z,4.70
2019-04-30T19:29:51.686Z,4.83
2019-04-30T19:32:21.879Z,4.97
2019-04-30T19:34:51.853Z,4.92
2019-04-30T19:37:21.754Z,4.60
2019-04-30T19:39:51.901Z,4.72
2019-04-30T19:42:21.826Z,4.65
2019-04-30T19:44:58.981Z,4.12
2019-04-30T19:47:24.829Z,4.87
2019-04-30T19:49:55.338Z,5.20
2019-04-30T19:52:25.315Z,4.72
2019-04-30T19:54:55.353Z,4.22
2019-04-30T19:57:25.264Z,4.42
2019-04-30T19:59:56.291Z,4.30
2019-04-30T20:02:26.297Z,4.37
2019-04-30T20:04:56.237Z,3.90
2019-04-30T20:07:26.090Z,4.05
2019-04-30T20:10:02.883Z,3.98
2019-04-30T20:12:29.067Z,3.75
2019-04-30T20:15:00.571Z,4.22
2019-04-30T20:17:30.581Z,4.17
2019-04-30T20:20:00.584Z,4.28
2019-04-30T20:22:30.410Z,4.10
2019-04-30T20:25:00.865Z,4.30
2019-04-30T20:27:30.934Z,4.58
2019-04-30T20:30:00.889Z,4.03
2019-04-30T20:32:36.324Z,4.15
2019-04-30T20:35:05.473Z,3.92
2019-04-30T20:37:37.017Z,3.80
2019-04-30T20:40:11.150Z,4.33
2019-04-30T20:42:41.045Z,3.67
2019-04-30T20:45:11.252Z,4.20
2019-04-30T20:47:41.217Z,3.85
2019-04-30T20:50:11.101Z,3.80
2019-04-30T20:52:41.061Z,4.30
2019-04-30T20:55:11.058Z,4.37
2019-04-30T20:57:40.893Z,4.95
2019-04-30T21:00:10.977Z,4.28
2019-04-30T21:02:42.173Z,4.50
2019-04-30T21:05:13.817Z,4.92
2019-04-30T21:07:43.645Z,4.92
2019-04-30T21:10:13.651Z,5.10
2019-04-30T21:12:43.714Z,4.78
2019-04-30T21:15:13.889Z,5.12
2019-04-30T21:17:43.965Z,5.60
2019-04-30T21:20:14.411Z,5.15
2019-04-30T21:22:44.411Z,4.80
2019-04-30T21:25:14.459Z,5.20
2019-04-30T21:27:44.402Z,5.62
2019-04-30T21:30:14.879Z,5.28
2019-04-30T21:32:59.341Z,5.17
2019-04-30T21:35:39.621Z,4.53
2019-04-30T21:38:09.957Z,5.03
2019-04-30T21:40:39.925Z,5.15
2019-04-30T21:43:09.861Z,5.05
2019-04-30T21:45:39.986Z,4.50
2019-04-30T21:48:09.950Z,4.47
2019-04-30T21:50:39.994Z,4.87
2019-04-30T21:53:10.019Z,4.20
2019-04-30T21:55:40.088Z,4.70
2019-04-30T21:58:11.004Z,4.80
2019-04-30T22:00:42.613Z,5.30
2019-04-30T22:03:14.312Z,4.72
2019-04-30T22:05:44.354Z,5.12
2019-04-30T22:08:14.367Z,4.53
2019-04-30T22:10:44.401Z,3.77
2019-04-30T22:13:14.413Z,4.60
2019-04-30T22:15:44.401Z,4.10
2019-04-30T22:18:14.385Z,3.67
2019-04-30T22:20:44.306Z,4.00
2019-04-30T22:23:15.245Z,4.10
2019-04-30T22:25:45.172Z,4.05
2019-04-30T22:28:15.094Z,5.37
2019-04-30T22:30:44.965Z,4.70
2019-04-30T22:33:14.925Z,4.58
2019-04-30T22:35:46.463Z,4.92
2019-04-30T22:38:19.044Z,4.80
2019-04-30T22:40:50.053Z,4.53
2019-04-30T22:43:19.953Z,4.25
2019-04-30T22:45:55.073Z,4.45
2019-04-30T22:48:25.041Z,4.22
2019-04-30T22:50:55.166Z,4.60
2019-04-30T22:53:25.243Z,4.08
2019-04-30T22:55:55.281Z,3.70
2019-04-30T22:58:25.290Z,4.28
2019-04-30T23:00:56.869Z,4.20
2019-04-30T23:03:33.781Z,3.67
2019-04-30T23:06:03.854Z,4.00
2019-04-30T23:08:33.753Z,4.37
2019-04-30T23:11:03.960Z,4.00
2019-04-30T23:13:33.921Z,3.70
2019-04-30T23:16:04.069Z,3.95
2019-04-30T23:18:34.103Z,4.10
2019-04-30T23:21:04.110Z,3.95
2019-04-30T23:23:34.120Z,3.70
2019-04-30T23:26:04.189Z,4.67
2019-04-30T23:28:35.482Z,4.22
2019-04-30T23:31:05.382Z,4.05
2019-04-30T23:33:35.256Z,4.17
2019-04-30T23:36:05.217Z,4.55
2019-04-30T23:38:35.093Z,4.90
2019-04-30T23:41:04.999Z,4.42
2019-04-30T23:43:35.012Z,4.15
2019-04-30T23:46:05.121Z,4.50
2019-04-30T23:48:35.000Z,4.85
2019-04-30T23:51:05.345Z,4.80
2019-04-30T23:53:35.273Z,4.00
2019-04-30T23:56:05.245Z,4.60
2019-04-30T23:58:35.185Z,5.53
